Terminal Aerodrome Forecast
Issued by NWS St Louis, MO

Home | Current Version | Previous Version | Graphics & Text | Print | Product List | Glossary On
Versions: 1 2 3 4 5 6 7 8 9 10 11 12 13 14 15 16 17 18 19
000
FTUS43 KLSX 211521 AAA
TAFCOU
TAF AMD
KCOU 211521Z 2115/2212 13007KT P6SM SCT020
     FM212000 15009KT P6SM BKN035
     FM220300 15012KT 3SM -SHRA VCTS OVC020CB
     FM220700 17010KT 5SM -SHRA OVC012=

USA.gov is the U.S. government's official web portal to all federal, state and local government web resources and services.